Time;durP1;ratioP1;P1;durP2;ratioP2;P2;SDS_P1;SDS_P2;PMS_P1;PMS_P2;Temp;Humidity;BMP_temperature;BMP_pressure;BME280_temperature;BME280_humidity;BME280_pressure;Samples;Min_cycle;Max_cycle;Signal;HPM_P1;HPM_P2
2021/10/26 00:00:59;;;;;;;52.73;23.42;;;;;;;0.38;71.84;99543.72;2220828;80;21027;-68
2021/10/26 00:04:01;;;;;;;58.42;24.45;;;;;;;0.28;71.98;99544.22;2220725;80;21585;-67
2021/10/26 00:07:02;;;;;;;59.60;25.45;;;;;;;0.24;72.08;99544.66;2220627;80;21541;-67
2021/10/26 00:10:04;;;;;;;53.92;21.82;;;;;;;0.30;72.58;99539.89;2220852;80;21036;-67
2021/10/26 00:13:05;;;;;;;52.83;22.07;;;;;;;0.34;72.00;99539.88;2220831;80;21504;-67
2021/10/26 00:16:07;;;;;;;54.05;22.67;;;;;;;0.34;71.96;99537.30;2220836;80;21044;-67
2021/10/26 00:19:08;;;;;;;53.65;22.42;;;;;;;0.21;72.28;99539.97;2220805;80;21011;-67
2021/10/26 00:22:09;;;;;;;58.00;23.10;;;;;;;0.11;71.91;99542.60;2221100;80;20949;-67
2021/10/26 00:25:11;;;;;;;57.15;23.77;;;;;;;0.04;72.56;99548.67;2220782;80;20968;-68
2021/10/26 00:28:12;;;;;;;54.55;24.77;;;;;;;-0.07;72.50;99550.05;2220953;80;21024;-68
2021/10/26 00:31:14;;;;;;;57.33;25.32;;;;;;;-0.16;72.80;99546.22;2220709;80;21491;-67
2021/10/26 00:34:16;;;;;;;51.58;23.15;;;;;;;-0.18;72.86;99552.67;2220770;80;21115;-67
2021/10/26 00:37:17;;;;;;;57.78;23.67;;;;;;;-0.19;73.21;99547.52;2220934;80;21542;-67
2021/10/26 00:40:19;;;;;;;53.83;23.35;;;;;;;0.07;73.37;99547.39;2220800;80;20988;-68
2021/10/26 00:43:20;;;;;;;58.40;24.55;;;;;;;0.04;72.88;99545.25;2220792;80;21543;-68
2021/10/26 00:46:21;;;;;;;61.15;24.15;;;;;;;0.04;72.57;99547.83;2221044;80;20952;-67
2021/10/26 00:49:23;;;;;;;56.73;23.22;;;;;;;-0.07;72.66;99555.20;2210225;80;21111;-67
2021/10/26 00:52:26;;;;;;;52.67;22.45;;;;;;;-0.18;72.73;99557.83;2210411;81;21028;-67
2021/10/26 00:55:28;;;;;;;50.25;21.62;;;;;;;-0.23;72.61;99553.56;2188939;81;20973;-67
2021/10/26 00:58:30;;;;;;;56.10;22.62;;;;;;;-0.36;72.85;99551.48;2210342;81;21475;-67
2021/10/26 01:01:32;;;;;;;54.55;22.82;;;;;;;-0.37;73.08;99557.08;2210326;81;20961;-67
2021/10/26 01:04:33;;;;;;;54.93;22.77;;;;;;;-0.27;73.48;99555.31;2210208;81;21060;-67
2021/10/26 01:07:35;;;;;;;52.35;23.45;;;;;;;-0.12;73.19;99550.49;2209920;81;20992;-67
2021/10/26 01:10:36;;;;;;;56.18;23.50;;;;;;;-0.18;72.77;99547.52;2210203;81;20976;-68
2021/10/26 01:13:38;;;;;;;58.60;24.60;;;;;;;-0.28;72.49;99553.59;2210371;81;20988;-67
2021/10/26 01:16:39;;;;;;;54.95;24.18;;;;;;;-0.33;72.54;99559.64;2210380;81;20984;-67
2021/10/26 01:19:42;;;;;;;55.12;22.75;;;;;;;-0.40;72.65;99553.23;2210359;81;21075;-67
2021/10/26 01:22:44;;;;;;;58.38;24.55;;;;;;;-0.44;72.97;99555.84;2210397;81;21042;-67
2021/10/26 01:25:45;;;;;;;56.28;24.23;;;;;;;-0.47;73.03;99549.41;2210454;81;21004;-67
2021/10/26 01:28:47;;;;;;;60.78;25.77;;;;;;;-0.47;73.16;99548.12;2210313;81;21005;-67
2021/10/26 01:31:48;;;;;;;57.73;25.17;;;;;;;-0.39;73.78;99544.64;2210378;81;21472;-67
2021/10/26 01:34:49;;;;;;;60.65;23.52;;;;;;;-0.24;73.33;99544.13;2210353;81;20972;-67
2021/10/26 01:37:51;;;;;;;57.80;25.32;;;;;;;-0.29;73.10;99538.14;2210327;81;21567;-67
2021/10/26 01:43:56;;;;;;;60.67;24.50;;;;;;;-0.35;73.04;99532.58;2188397;81;20992;-67
2021/10/26 01:46:58;;;;;;;59.13;24.07;;;;;;;-0.23;73.36;99531.64;2210398;80;21472;-67
2021/10/26 01:49:59;;;;;;;55.50;23.47;;;;;;;-0.19;73.42;99534.22;2210520;81;20977;-67
2021/10/26 01:53:01;;;;;;;50.63;23.25;;;;;;;-0.37;73.19;99532.59;2210379;81;21533;-67
2021/10/26 01:56:02;;;;;;;62.90;25.15;;;;;;;-0.36;72.79;99530.44;2210228;81;21032;-67
2021/10/26 01:59:03;;;;;;;58.05;24.72;;;;;;;-0.45;73.26;99535.63;2210324;81;21003;-67
2021/10/26 02:02:05;;;;;;;55.35;24.52;;;;;;;-0.31;73.70;99542.45;2210491;81;20984;-68
2021/10/26 02:05:06;;;;;;;66.97;29.53;;;;;;;-0.37;73.05;99530.01;2210249;81;21004;-67
2021/10/26 02:08:08;;;;;;;61.02;27.55;;;;;;;-0.43;73.00;99529.17;2210489;81;20957;-67
2021/10/26 02:11:09;;;;;;;57.83;24.32;;;;;;;-0.43;73.28;99540.36;2210345;81;20992;-67
2021/10/26 02:14:11;;;;;;;56.02;22.22;;;;;;;-0.40;72.96;99536.92;2210312;81;21533;-67
2021/10/26 02:17:12;;;;;;;55.15;24.37;;;;;;;-0.42;72.93;99529.16;2210354;81;20992;-67
2021/10/26 02:20:14;;;;;;;58.87;25.60;;;;;;;-0.40;73.03;99530.03;2210574;81;21452;-67
2021/10/26 02:23:15;;;;;;;60.33;25.70;;;;;;;-0.40;73.10;99524.88;2210187;81;21144;-67
2021/10/26 02:26:17;;;;;;;55.40;24.52;;;;;;;-0.51;73.24;99520.20;2210337;81;21487;-67
2021/10/26 02:29:18;;;;;;;60.17;24.50;;;;;;;-0.55;73.49;99520.67;2210455;81;21054;-67
2021/10/26 02:32:19;;;;;;;56.18;23.83;;;;;;;-0.60;73.82;99521.11;2210320;81;20992;-67
2021/10/26 02:35:21;;;;;;;57.13;23.90;;;;;;;-0.66;74.03;99521.14;2210391;81;20992;-67
2021/10/26 02:38:22;;;;;;;60.45;25.10;;;;;;;-0.70;73.25;99519.44;2210021;81;20993;-68
2021/10/26 02:41:24;;;;;;;56.37;25.43;;;;;;;-0.80;73.70;99530.20;2210284;81;21472;-67
2021/10/26 02:44:26;;;;;;;56.05;23.25;;;;;;;-0.68;74.32;99528.00;2210280;81;20991;-67
2021/10/26 02:47:27;;;;;;;56.28;23.42;;;;;;;-0.78;73.90;99528.47;2212179;80;21004;-67
2021/10/26 02:50:29;;;;;;;54.10;23.40;;;;;;;-0.87;73.90;99543.52;2220917;80;21043;-68
2021/10/26 02:53:30;;;;;;;59.23;24.47;;;;;;;-0.96;73.78;99533.27;2220915;80;21551;-68
2021/10/26 02:56:31;;;;;;;57.40;23.80;;;;;;;-0.90;73.89;99534.96;2221036;80;21036;-68
2021/10/26 02:59:33;;;;;;;64.40;25.43;;;;;;;-0.83;74.13;99539.64;2220910;80;20969;-68
2021/10/26 03:02:34;;;;;;;57.00;25.57;;;;;;;-0.87;74.66;99523.36;2221055;80;21063;-68
2021/10/26 03:05:36;;;;;;;57.20;22.25;;;;;;;-0.81;74.78;99527.19;2220871;80;21060;-68
2021/10/26 03:08:37;;;;;;;57.30;24.50;;;;;;;-0.81;73.94;99536.20;2220927;80;21523;-67
2021/10/26 03:11:39;;;;;;;58.38;25.95;;;;;;;-0.82;74.25;99539.67;2220912;80;21063;-67
2021/10/26 03:14:40;;;;;;;57.80;24.80;;;;;;;-0.89;74.21;99535.37;2220891;80;21590;-67
2021/10/26 03:17:41;;;;;;;69.53;25.17;;;;;;;-0.89;74.15;99541.40;2221095;80;20995;-67
2021/10/26 03:20:43;;;;;;;58.23;24.07;;;;;;;-0.79;74.30;99531.92;2220898;80;21000;-68
2021/10/26 03:23:44;;;;;;;59.95;24.95;;;;;;;-0.79;73.96;99533.63;2221010;80;20980;-68
2021/10/26 03:26:46;;;;;;;55.33;24.23;;;;;;;-0.88;74.95;99536.68;2220918;80;21051;-68
2021/10/26 03:29:47;;;;;;;56.70;24.12;;;;;;;-0.88;74.67;99539.66;2220894;80;21092;-68
2021/10/26 03:32:49;;;;;;;53.68;23.22;;;;;;;-0.92;74.65;99540.12;2220902;80;21067;-68
2021/10/26 03:35:54;;;;;;;;;;;;;;;-0.97;74.58;99542.28;2223178;80;21158;-68
2021/10/26 03:38:55;;;;;;;59.25;24.37;;;;;;;-0.91;75.17;99538.39;2192993;80;20108;-68
2021/10/26 03:41:57;;;;;;;59.45;26.27;;;;;;;-0.90;75.40;99531.95;2221133;80;21053;-68
2021/10/26 03:44:58;;;;;;;57.85;24.07;;;;;;;-0.95;74.75;99534.98;2221045;80;21041;-68
2021/10/26 03:48:00;;;;;;;55.03;23.77;;;;;;;-0.90;74.96;99540.96;2218068;80;21079;-67
2021/10/26 03:51:01;;;;;;;59.80;24.25;;;;;;;-0.86;74.99;99534.09;2210388;81;20996;-67
2021/10/26 03:54:03;;;;;;;58.30;24.05;;;;;;;-0.84;74.98;99541.38;2210454;81;21491;-67
2021/10/26 03:57:08;;;;;;;53.10;22.85;;;;;;;-0.83;74.46;99532.80;2210365;81;21028;-67
2021/10/26 04:00:07;;;;;;;52.03;22.48;;;;;;;-0.84;74.66;99531.07;2188768;81;20992;-67
2021/10/26 04:03:09;;;;;;;55.45;24.47;;;;;;;-0.82;74.82;99526.79;2210326;81;21511;-67
2021/10/26 04:06:15;;;;;;;53.37;23.10;;;;;;;-0.88;75.12;99534.11;2210498;81;21064;-67
2021/10/26 04:09:14;;;;;;;53.55;22.85;;;;;;;-0.79;74.97;99525.48;2188836;81;21007;-68
2021/10/26 04:15:19;;;;;;;55.17;24.70;;;;;;;-0.85;74.53;99524.64;2188720;81;20974;-67
2021/10/26 04:18:21;;;;;;;56.63;22.90;;;;;;;-0.84;75.06;99518.19;2210335;81;21510;-67
2021/10/26 04:21:23;;;;;;;52.30;22.40;;;;;;;-0.93;75.20;99524.23;2210487;81;20976;-67
2021/10/26 04:24:24;;;;;;;55.40;23.10;;;;;;;-0.94;74.82;99522.51;2210296;81;21468;-68
2021/10/26 04:27:26;;;;;;;54.55;23.77;;;;;;;-0.85;74.90;99520.33;2210309;81;20937;-68
2021/10/26 04:30:27;;;;;;;55.65;23.10;;;;;;;-0.84;75.15;99513.48;2210303;81;21539;-68
2021/10/26 04:33:29;;;;;;;57.15;25.52;;;;;;;-0.85;75.05;99521.62;2210138;81;21032;-68
2021/10/26 04:36:31;;;;;;;57.73;24.50;;;;;;;-0.93;74.86;99511.80;2209974;81;21611;-67
2021/10/26 04:39:32;;;;;;;50.50;23.55;;;;;;;-0.95;74.96;99514.79;2210042;81;21091;-68
2021/10/26 04:42:34;;;;;;;53.48;24.70;;;;;;;-0.91;74.92;99510.91;2210198;81;21507;-67
2021/10/26 04:45:36;;;;;;;57.45;24.35;;;;;;;-0.91;75.21;99505.75;2210266;81;21068;-67
2021/10/26 04:48:37;;;;;;;59.58;24.70;;;;;;;-0.85;75.22;99502.74;2213980;80;21614;-67
2021/10/26 04:51:39;;;;;;;62.38;25.40;;;;;;;-0.85;75.41;99507.45;2220604;80;21072;-67
2021/10/26 04:54:40;;;;;;;58.28;26.30;;;;;;;-0.78;75.75;99504.43;2220431;80;21091;-67
2021/10/26 04:57:43;;;;;;;58.63;24.10;;;;;;;-0.75;75.37;99505.30;2220677;80;20940;-67
2021/10/26 05:00:45;;;;;;;56.98;24.65;;;;;;;-0.78;75.36;99503.98;2220553;80;21052;-67
2021/10/26 05:03:46;;;;;;;58.42;23.65;;;;;;;-0.83;75.37;99498.02;2220433;80;21040;-67
2021/10/26 05:06:47;;;;;;;52.83;22.15;;;;;;;-0.84;75.28;99502.73;2220376;80;21598;-67
2021/10/26 05:09:49;;;;;;;59.10;24.43;;;;;;;-0.82;75.30;99507.88;2220463;80;21048;-67
2021/10/26 05:12:51;;;;;;;54.65;24.15;;;;;;;-0.78;75.43;99500.57;2220571;80;21630;-67
2021/10/26 05:15:52;;;;;;;58.10;24.65;;;;;;;-0.72;75.39;99506.97;2220455;80;21028;-67
2021/10/26 05:18:57;;;;;;;55.25;23.80;;;;;;;-0.69;75.03;99504.38;2220414;80;21570;-67
2021/10/26 05:21:57;;;;;;;54.35;22.77;;;;;;;-0.71;75.28;99508.70;2190295;80;21559;-67
2021/10/26 05:24:58;;;;;;;56.83;23.12;;;;;;;-0.63;75.40;99509.94;2220542;80;21056;-68
2021/10/26 05:28:00;;;;;;;55.38;23.35;;;;;;;-0.65;75.21;99507.81;2220590;80;21563;-68
2021/10/26 05:31:01;;;;;;;55.12;22.75;;;;;;;-0.64;75.39;99512.11;2220825;80;21052;-68
2021/10/26 05:34:03;;;;;;;51.95;22.58;;;;;;;-0.64;75.16;99518.55;2220425;80;21088;-68
2021/10/26 05:37:04;;;;;;;55.98;21.90;;;;;;;-0.61;75.42;99521.11;2220099;80;21024;-67
2021/10/26 05:40:06;;;;;;;54.70;22.52;;;;;;;-0.55;75.38;99525.82;2220411;80;21060;-67
2021/10/26 05:43:07;;;;;;;60.12;24.67;;;;;;;-0.49;75.34;99522.33;2220538;80;21044;-67
2021/10/26 05:46:08;;;;;;;52.03;21.93;;;;;;;-0.47;75.17;99528.34;2220443;80;21036;-67
2021/10/26 05:49:10;;;;;;;52.80;22.55;;;;;;;-0.43;75.13;99526.59;2215388;80;21594;-67
2021/10/26 05:52:11;;;;;;;55.50;25.10;;;;;;;-0.40;75.03;99526.61;2210165;81;21060;-67
2021/10/26 05:55:13;;;;;;;67.15;30.55;;;;;;;-0.36;75.49;99529.16;2210103;81;21531;-68
2021/10/26 05:58:14;;;;;;;59.38;26.93;;;;;;;-0.35;75.13;99524.40;2210301;81;21027;-67
2021/10/26 06:01:16;;;;;;;63.60;25.17;;;;;;;-0.32;75.22;99521.40;2210246;81;21035;-68
2021/10/26 06:04:18;;;;;;;55.10;25.60;;;;;;;-0.22;75.05;99523.05;2210564;81;21012;-67
2021/10/26 06:07:20;;;;;;;69.40;33.20;;;;;;;-0.23;75.28;99524.78;2210124;81;21507;-68
2021/10/26 06:10:21;;;;;;;61.77;27.80;;;;;;;-0.08;75.67;99528.13;2210462;81;20993;-67
2021/10/26 06:13:27;;;;;;;61.02;28.23;;;;;;;-0.04;75.30;99536.28;2210302;81;21466;-67
2021/10/26 06:16:26;;;;;;;62.43;25.75;;;;;;;-0.09;75.07;99536.28;2188890;81;21385;-67
2021/10/26 06:19:28;;;;;;;54.77;23.75;;;;;;;0.02;75.14;99533.66;2210386;81;20993;-67
2021/10/26 06:22:30;;;;;;;56.30;23.65;;;;;;;0.11;75.18;99535.31;2210450;81;21524;-67
2021/10/26 06:25:32;;;;;;;;;;;;;;;0.19;75.42;99536.53;2213076;81;20984;-67
2021/10/26 06:28:35;;;;;;;55.12;23.20;;;;;;;0.31;75.32;99540.32;2210364;81;20109;-67
2021/10/26 06:31:36;;;;;;;55.45;23.45;;;;;;;0.42;75.40;99537.67;2210431;81;21529;-67
2021/10/26 06:34:38;;;;;;;51.55;22.10;;;;;;;0.59;76.00;99542.25;2210277;81;20972;-67
2021/10/26 06:37:43;;;;;;;55.43;23.40;;;;;;;0.79;75.64;99545.06;2210308;81;21563;-67
2021/10/26 06:40:42;;;;;;;57.55;25.62;;;;;;;0.95;75.50;99550.92;2188807;81;21487;-67
2021/10/26 06:43:44;;;;;;;56.20;26.85;;;;;;;1.10;75.28;99561.11;2210397;81;20957;-67
2021/10/26 06:46:45;;;;;;;61.00;31.17;;;;;;;1.22;75.22;99562.70;2210414;81;20988;-67
2021/10/26 06:49:48;;;;;;;63.90;29.50;;;;;;;1.40;75.43;99561.64;2216371;80;21012;-67
2021/10/26 06:52:50;;;;;;;61.63;27.30;;;;;;;1.63;75.19;99565.69;2190450;80;20985;-67
2021/10/26 06:55:52;;;;;;;60.28;27.58;;;;;;;1.85;74.99;99566.24;2220709;80;21020;-66
2021/10/26 06:58:53;;;;;;;63.23;25.95;;;;;;;1.99;74.82;99561.73;2220775;80;20964;-67
2021/10/26 07:01:55;;;;;;;61.83;27.48;;;;;;;2.07;74.65;99554.72;2220561;80;21068;-67
2021/10/26 07:05:00;;;;;;;60.20;25.70;;;;;;;2.25;74.70;99558.75;2220647;80;21066;-67
2021/10/26 07:07:59;;;;;;;63.23;27.20;;;;;;;2.51;74.81;99565.25;2190364;80;20996;-67
2021/10/26 07:11:01;;;;;;;67.10;28.32;;;;;;;2.73;74.74;99562.30;2220676;80;21119;-67
2021/10/26 07:14:03;;;;;;;62.62;27.37;;;;;;;3.01;74.60;99567.02;2220761;80;21044;-66
2021/10/26 07:17:05;;;;;;;66.65;27.32;;;;;;;3.27;74.31;99569.11;2220812;80;20969;-66
2021/10/26 07:20:07;;;;;;;73.37;30.88;;;;;;;3.49;74.14;99565.64;2220602;80;21134;-66
2021/10/26 07:23:08;;;;;;;80.95;34.67;;;;;;;3.78;74.40;99566.80;2220540;80;21084;-67
2021/10/26 07:26:10;;;;;;;76.28;33.85;;;;;;;4.15;74.38;99562.07;2220820;80;21048;-66
2021/10/26 07:29:11;;;;;;;70.17;30.68;;;;;;;4.54;74.03;99556.84;2220683;80;21056;-66
2021/10/26 07:32:13;;;;;;;66.05;28.92;;;;;;;4.85;73.59;99554.30;2220539;80;21036;-66
2021/10/26 07:35:15;;;;;;;61.70;26.65;;;;;;;5.17;73.28;99560.84;2220743;80;20997;-66
2021/10/26 07:41:20;;;;;;;58.52;25.05;;;;;;;5.83;73.05;99555.52;2190412;80;21523;-66
2021/10/26 07:44:22;;;;;;;47.62;22.52;;;;;;;6.14;72.90;99551.56;2220707;80;20976;-66
2021/10/26 07:47:23;;;;;;;53.55;23.38;;;;;;;6.52;72.23;99549.50;2220588;80;21582;-66
2021/10/26 07:50:25;;;;;;;52.53;24.43;;;;;;;6.61;71.66;99548.34;2213105;80;21131;-66
2021/10/26 07:53:27;;;;;;;55.33;25.85;;;;;;;6.81;71.70;99548.10;2210328;81;21506;-66
2021/10/26 07:56:28;;;;;;;51.23;24.23;;;;;;;6.96;71.21;99547.58;2210512;81;21023;-66
2021/10/26 07:59:30;;;;;;;51.40;22.75;;;;;;;7.09;71.52;99546.70;2210311;81;21520;-66
2021/10/26 08:02:31;;;;;;;47.62;22.50;;;;;;;7.32;70.91;99539.36;2210363;81;21051;-66
2021/10/26 08:05:33;;;;;;;48.25;22.10;;;;;;;7.56;70.83;99541.52;2210303;81;20961;-66
2021/10/26 08:08:34;;;;;;;45.90;21.68;;;;;;;7.72;70.51;99546.18;2210460;81;21012;-66
2021/10/26 08:11:36;;;;;;;47.58;20.60;;;;;;;7.91;70.48;99539.80;2210153;81;21024;-66
2021/10/26 08:14:38;;;;;;;48.63;21.53;;;;;;;8.20;69.98;99533.41;2210607;81;20993;-66
2021/10/26 08:17:40;;;;;;;50.08;21.85;;;;;;;8.45;69.73;99530.70;2209967;81;21036;-66
2021/10/26 08:20:42;;;;;;;42.80;20.05;;;;;;;8.80;70.10;99534.91;2210414;81;21039;-66
2021/10/26 08:23:44;;;;;;;42.00;18.97;;;;;;;9.20;69.50;99527.11;2210418;81;21031;-66
2021/10/26 08:26:56;;;;;;;37.30;15.03;;;;;;;9.64;69.15;99519.02;2210207;81;21053;-66
2021/10/26 08:32:57;;;;;;;35.78;14.10;;;;;;;10.30;66.58;99521.60;2188714;81;21530;-66
2021/10/26 08:35:56;;;;;;;34.60;15.03;;;;;;;10.54;66.09;99516.95;2188681;81;21519;-66
2021/10/26 08:38:57;;;;;;;36.05;15.60;;;;;;;10.77;64.98;99512.30;2210284;81;21313;-66
2021/10/26 08:41:59;;;;;;;34.15;15.08;;;;;;;10.91;64.91;99518.17;2210023;81;21037;-66
2021/10/26 08:45:01;;;;;;;36.95;14.83;;;;;;;11.02;64.99;99518.47;2210241;81;21020;-66
2021/10/26 08:48:03;;;;;;;37.70;14.75;;;;;;;11.04;62.61;99513.97;2210414;81;21001;-66
2021/10/26 08:51:05;;;;;;;33.63;12.85;;;;;;;10.98;63.65;99516.92;2210353;80;21052;-66
2021/10/26 08:54:07;;;;;;;;;;;;;;;11.11;61.96;99513.20;2212931;81;21007;-66
2021/10/26 08:57:08;;;;;;;33.55;14.13;;;;;;;11.16;61.78;99504.63;2210214;80;20161;-66
2021/10/26 09:00:09;;;;;;;33.88;13.25;;;;;;;11.14;63.02;99503.01;2210257;81;21004;-66
2021/10/26 09:03:11;;;;;;;30.50;13.08;;;;;;;11.25;61.98;99506.76;2210391;81;21056;-66
2021/10/26 09:06:13;;;;;;;31.87;12.28;;;;;;;11.54;62.99;99506.14;2210560;81;20983;-66
2021/10/26 09:09:14;;;;;;;28.65;11.48;;;;;;;11.82;61.69;99502.83;2210167;81;21016;-66
2021/10/26 09:18:21;;;;;;;28.40;11.08;;;;;;;11.67;59.92;99503.70;2188681;81;20988;-66
2021/10/26 09:21:23;;;;;;;28.70;11.78;;;;;;;11.58;59.64;99505.05;2210336;81;20996;-66
2021/10/26 09:24:25;;;;;;;27.00;10.68;;;;;;;11.62;60.31;99503.92;2210393;81;21523;-66
2021/10/26 09:27:26;;;;;;;28.80;11.27;;;;;;;11.82;60.57;99500.67;2210554;81;21040;-66
2021/10/26 09:30:28;;;;;;;31.50;12.80;;;;;;;11.93;59.74;99495.23;2210589;81;21015;-66
2021/10/26 09:33:29;;;;;;;33.42;12.70;;;;;;;12.04;57.49;99499.89;2210691;81;20984;-66
2021/10/26 09:36:31;;;;;;;30.62;11.60;;;;;;;12.11;57.99;99500.38;2210493;81;20992;-66
2021/10/26 09:39:33;;;;;;;27.35;10.28;;;;;;;12.18;58.03;99499.09;2210825;81;20996;-66
2021/10/26 09:42:34;;;;;;;25.75;9.18;;;;;;;12.24;58.37;99492.19;2210628;81;21036;-66
2021/10/26 09:45:36;;;;;;;25.55;9.58;;;;;;;12.24;55.82;99497.89;2210701;81;21456;-66
2021/10/26 09:48:37;;;;;;;27.60;9.83;;;;;;;12.23;57.31;99498.37;2210753;80;20976;-66
2021/10/26 09:51:39;;;;;;;22.47;8.37;;;;;;;12.30;56.81;99502.83;2210358;80;21496;-66
2021/10/26 09:54:41;;;;;;;24.82;7.80;;;;;;;12.40;55.81;99487.38;2210446;80;20992;-66
2021/10/26 09:57:43;;;;;;;22.67;7.08;;;;;;;12.40;54.16;99492.63;2210721;80;20988;-66
2021/10/26 10:00:45;;;;;;;24.50;7.60;;;;;;;12.38;54.36;99483.48;2210549;80;21051;-66
2021/10/26 10:03:47;;;;;;;22.30;6.62;;;;;;;12.47;54.01;99480.34;2210450;80;20949;-66
2021/10/26 10:06:48;;;;;;;22.50;6.85;;;;;;;12.48;53.66;99479.86;2210558;81;20985;-66
2021/10/26 10:09:50;;;;;;;25.87;7.77;;;;;;;12.61;54.02;99480.85;2210565;80;21016;-66
2021/10/26 10:12:52;;;;;;;27.77;10.50;;;;;;;12.61;52.80;99483.48;2210086;81;21051;-66
2021/10/26 10:15:53;;;;;;;22.00;7.10;;;;;;;12.60;54.35;99475.20;2210682;81;20953;-66
2021/10/26 10:18:55;;;;;;;30.33;8.10;;;;;;;12.70;50.30;99477.27;2210170;81;20997;-66
2021/10/26 10:21:57;;;;;;;26.50;9.90;;;;;;;12.70;52.65;99462.34;2210458;81;20976;-67
2021/10/26 10:24:59;;;;;;;22.07;6.40;;;;;;;12.80;53.80;99459.53;2210529;80;20992;-66
2021/10/26 10:28:01;;;;;;;22.97;6.57;;;;;;;12.75;51.16;99458.12;2210687;80;20980;-66
2021/10/26 10:31:03;;;;;;;22.40;7.22;;;;;;;12.46;50.18;99450.17;2210276;81;21460;-66
2021/10/26 10:34:05;;;;;;;20.23;6.87;;;;;;;12.36;51.22;99459.06;2210791;80;20972;-66
2021/10/26 10:37:06;;;;;;;23.95;7.20;;;;;;;12.32;52.22;99447.50;2210469;81;21044;-66
2021/10/26 10:40:08;;;;;;;21.90;6.75;;;;;;;12.37;50.46;99444.98;2210062;81;21516;-66
2021/10/26 10:43:10;;;;;;;23.33;6.67;;;;;;;12.24;48.79;99434.33;2210623;81;20941;-66
2021/10/26 10:46:11;;;;;;;21.87;7.10;;;;;;;12.24;50.06;99439.59;2210562;80;21012;-67
2021/10/26 10:49:12;;;;;;;22.90;7.50;;;;;;;12.20;50.54;99441.18;2211152;80;20981;-67
2021/10/26 10:52:16;;;;;;;21.60;6.40;;;;;;;12.31;51.17;99430.85;2221204;80;20984;-67
2021/10/26 10:55:17;;;;;;;22.55;7.37;;;;;;;12.30;49.67;99430.02;2220987;80;21024;-67
2021/10/26 10:58:19;;;;;;;23.22;7.45;;;;;;;12.31;51.10;99429.53;2221384;80;20984;-67
2021/10/26 11:01:20;;;;;;;23.07;6.97;;;;;;;12.38;48.72;99427.41;2221217;80;21017;-66
2021/10/26 11:04:23;;;;;;;22.65;7.53;;;;;;;12.42;49.86;99417.92;2221127;80;21577;-67
2021/10/26 11:07:25;;;;;;;22.25;7.33;;;;;;;12.49;50.39;99417.09;2220936;80;21044;-67
2021/10/26 11:10:26;;;;;;;23.80;7.33;;;;;;;12.52;47.81;99427.44;2221407;80;20975;-66
2021/10/26 11:13:27;;;;;;;25.60;8.40;;;;;;;12.57;48.53;99398.20;2221245;80;21007;-67
2021/10/26 11:16:29;;;;;;;22.95;7.30;;;;;;;12.55;49.29;99400.94;2221252;80;21059;-67
2021/10/26 11:19:30;;;;;;;23.62;7.45;;;;;;;12.43;48.96;99406.47;2221275;80;21075;-67
2021/10/26 11:22:32;;;;;;;23.95;6.95;;;;;;;12.33;48.84;99404.48;2221684;80;21463;-67
2021/10/26 11:25:34;;;;;;;22.73;7.90;;;;;;;12.47;49.45;99418.50;2221233;80;20981;-67
2021/10/26 11:28:36;;;;;;;24.18;8.18;;;;;;;12.72;47.46;99418.83;2220871;80;21119;-67
2021/10/26 11:31:37;;;;;;;24.27;8.33;;;;;;;12.93;48.44;99417.97;2221171;80;21052;-67
2021/10/26 11:34:39;;;;;;;22.37;7.90;;;;;;;13.05;47.60;99418.54;2221460;80;20995;-67
2021/10/26 11:37:41;;;;;;;26.27;9.20;;;;;;;12.85;47.66;99422.40;2221010;80;20968;-67
2021/10/26 11:40:42;;;;;;;24.63;9.38;;;;;;;12.46;48.93;99419.91;2220918;80;21004;-67
2021/10/26 11:43:44;;;;;;;28.52;9.50;;;;;;;12.15;48.77;99414.28;2221053;80;21531;-66
2021/10/26 11:46:46;;;;;;;26.65;9.95;;;;;;;11.98;49.51;99417.89;2221009;80;21107;-67
2021/10/26 11:49:47;;;;;;;28.52;9.65;;;;;;;11.84;49.58;99410.75;2219388;80;21594;-67
2021/10/26 11:52:48;;;;;;;27.40;10.00;;;;;;;11.87;49.54;99417.17;2210454;81;21079;-67
2021/10/26 11:55:50;;;;;;;28.38;9.60;;;;;;;12.24;50.13;99413.73;2210455;81;21036;-66
2021/10/26 11:58:52;;;;;;;26.30;9.73;;;;;;;12.65;49.49;99416.54;2210238;80;21084;-67
2021/10/26 12:01:54;;;;;;;28.07;9.80;;;;;;;12.78;49.62;99402.66;2210145;80;21535;-68
2021/10/26 12:04:55;;;;;;;;;;;;;;;12.79;47.75;99413.56;2212841;80;21076;-67
2021/10/26 12:07:57;;;;;;;29.30;10.18;;;;;;;12.73;49.15;99399.44;2210365;80;20132;-67
2021/10/26 12:10:59;;;;;;;32.03;10.75;;;;;;;12.75;49.75;99394.95;2210368;81;21032;-67
2021/10/26 12:14:00;;;;;;;28.38;10.65;;;;;;;12.63;48.49;99389.48;2210704;81;20984;-67
2021/10/26 12:17:02;;;;;;;26.60;10.32;;;;;;;12.50;48.88;99390.30;2210485;81;20947;-66
2021/10/26 12:20:05;;;;;;;29.35;11.05;;;;;;;12.34;49.41;99387.30;2210579;81;20992;-67
2021/10/26 12:23:07;;;;;;;27.58;11.28;;;;;;;12.34;49.70;99391.24;2188315;81;20989;-66
2021/10/26 12:26:08;;;;;;;27.47;10.60;;;;;;;12.36;49.76;99380.14;2210483;81;21065;-67
2021/10/26 12:29:10;;;;;;;29.95;12.15;;;;;;;12.42;50.30;99382.41;2210467;81;21712;-66
2021/10/26 12:32:11;;;;;;;35.13;12.90;;;;;;;12.53;50.51;99380.91;2210405;81;21040;-67
2021/10/26 12:35:13;;;;;;;40.70;15.18;;;;;;;12.71;50.16;99379.80;2210329;81;21539;-68
2021/10/26 12:38:15;;;;;;;35.50;14.27;;;;;;;12.89;49.96;99385.73;2210416;81;21036;-67
2021/10/26 12:41:16;;;;;;;31.25;12.47;;;;;;;13.03;49.71;99378.30;2210320;81;21056;-68
2021/10/26 12:44:18;;;;;;;29.20;11.40;;;;;;;13.10;49.45;99378.30;2210433;81;21036;-67
2021/10/26 12:47:20;;;;;;;35.68;14.15;;;;;;;13.14;49.66;99372.34;2210322;81;21025;-67
2021/10/26 12:50:21;;;;;;;32.58;12.65;;;;;;;13.12;49.37;99379.03;2210251;80;21080;-67
2021/10/26 12:53:23;;;;;;;34.83;14.73;;;;;;;13.11;49.33;99376.49;2210107;81;21575;-67
2021/10/26 12:56:25;;;;;;;40.10;15.60;;;;;;;13.06;49.91;99374.16;2210324;81;20988;-68
2021/10/26 12:59:28;;;;;;;33.88;13.05;;;;;;;13.15;50.30;99378.00;2210407;81;21003;-68
2021/10/26 13:02:31;;;;;;;31.93;13.30;;;;;;;13.24;49.93;99372.14;2209939;81;20977;-67
2021/10/26 13:05:33;;;;;;;38.25;14.70;;;;;;;13.21;49.76;99370.19;2210253;81;20985;-67
2021/10/26 13:08:35;;;;;;;33.63;14.33;;;;;;;13.22;49.65;99370.56;2210636;81;21475;-67
2021/10/26 13:11:37;;;;;;;37.63;14.43;;;;;;;13.20;49.79;99368.48;2210405;81;20985;-67
2021/10/26 13:14:40;;;;;;;62.70;29.27;;;;;;;13.15;50.04;99372.25;2210475;81;21015;-67
2021/10/26 13:17:42;;;;;;;47.38;20.60;;;;;;;13.11;50.02;99358.89;2210380;81;21492;-67
2021/10/26 13:20:47;;;;;;;64.40;35.50;;;;;;;13.13;50.44;99359.66;2210458;81;21031;-67
2021/10/26 13:23:46;;;;;;;38.17;20.48;;;;;;;13.26;50.53;99359.73;2188855;81;20994;-67
2021/10/26 13:26:48;;;;;;;33.10;12.28;;;;;;;13.49;50.52;99349.55;2210797;81;21035;-67
2021/10/26 13:29:49;;;;;;;31.20;12.35;;;;;;;13.57;50.02;99359.58;2211019;81;20997;-68
2021/10/26 13:32:51;;;;;;;32.73;12.45;;;;;;;13.63;50.19;99356.53;2210288;81;21158;-67
2021/10/26 13:35:52;;;;;;;37.30;14.37;;;;;;;13.71;49.98;99355.56;2210885;81;21008;-67
2021/10/26 13:38:54;;;;;;;33.37;13.90;;;;;;;13.77;50.06;99359.11;2210734;81;21051;-67
2021/10/26 13:41:56;;;;;;;35.83;12.97;;;;;;;13.77;50.03;99358.27;2210744;81;21495;-67
2021/10/26 13:44:58;;;;;;;34.05;13.85;;;;;;;13.69;49.59;99361.39;2210604;81;20976;-67
2021/10/26 13:47:59;;;;;;;34.43;14.40;;;;;;;13.57;49.90;99360.89;2210403;81;21518;-67
2021/10/26 13:51:01;;;;;;;37.63;16.70;;;;;;;13.56;50.47;99357.88;2210570;81;21019;-67
2021/10/26 13:54:02;;;;;;;32.03;12.10;;;;;;;13.50;50.42;99360.44;2210574;81;21008;-67
2021/10/26 13:57:04;;;;;;;40.50;15.67;;;;;;;13.40;50.38;99356.70;2210847;81;20972;-67
2021/10/26 14:00:08;;;;;;;36.13;15.23;;;;;;;13.34;50.71;99363.18;2210547;81;21059;-67
2021/10/26 14:03:09;;;;;;;44.63;18.37;;;;;;;13.28;50.89;99360.95;2188508;81;21029;-67
2021/10/26 14:06:10;;;;;;;41.00;16.55;;;;;;;13.28;50.84;99361.78;2210478;81;20992;-67
2021/10/26 14:09:12;;;;;;;58.70;25.68;;;;;;;13.23;50.99;99357.75;2210689;81;21495;-67
2021/10/26 14:12:13;;;;;;;63.90;31.60;;;;;;;13.20;51.02;99357.95;2210539;81;20976;-67
2021/10/26 14:15:15;;;;;;;54.63;24.93;;;;;;;13.15;51.25;99365.66;2210486;81;21527;-67
2021/10/26 14:18:16;;;;;;;48.20;22.27;;;;;;;13.15;51.30;99359.56;2210458;81;20941;-67